EDT,Max TemperatureF,Mean TemperatureF,Min TemperatureF,Max Dew PointF,MeanDew PointF,Min DewpointF,Max Humidity, Mean Humidity, Min Humidity, Max Sea Level PressureIn, Mean Sea Level PressureIn, Min Sea Level PressureIn, Max VisibilityMiles, Mean VisibilityMiles, Min VisibilityMiles, Max Wind SpeedMPH, Mean Wind SpeedMPH, Max Gust SpeedMPH,PrecipitationIn, CloudCover, Events, WindDirDegrees
2014-4-1,78,56,33,43,34,28,100,53,17,30.17,30.09,30.01,10,10,10,12,2,16,0.00,0,,210
2014-4-2,86,66,46,43,36,30,71,37,14,30.10,30.04,29.99,10,10,7,15,3,21,0.00,0,,248
2014-4-3,73,60,46,52,45,34,81,58,28,30.11,30.02,29.92,10,10,10,10,3,,0.00,1,Rain,58
2014-4-4,78,64,50,55,50,43,94,58,29,29.93,29.83,29.72,10,10,3,22,5,34,0.00,0,,221
2014-4-5,69,58,46,52,36,28,93,45,26,30.12,29.97,29.81,10,10,10,14,5,23,0.00,0,,332
2014-4-6,59,49,39,36,31,23,75,49,31,30.25,30.17,30.12,10,10,10,17,6,24,0.00,2,,76
2014-4-7,60,50,39,61,45,36,100,95,54,30.13,29.91,29.67,10,8,0,16,6,21,1.17,8,Rain,36
2014-4-8,64,58,51,61,48,36,100,68,37,29.72,29.65,29.58,10,10,5,13,7,16,0.00,4,,293
2014-4-9,66,56,44,45,37,32,93,52,30,30.12,29.89,29.72,10,10,10,17,3,25,0.00,5,Rain,323
2014-4-10,71,52,33,41,35,32,100,57,23,30.29,30.20,30.13,10,10,7,15,2,26,0.00,0,,223
2014-4-11,77,64,50,45,39,36,67,42,22,30.22,30.14,30.05,10,10,10,23,8,32,0.00,0,Thunderstorm,218
2014-4-12,78,64,50,52,47,43,100,55,28,30.25,30.17,30.13,10,10,10,10,4,17,0.00,1,,132
2014-4-13,80,70,59,54,52,50,77,55,37,30.22,30.16,30.09,10,10,10,16,8,22,0.00,1,,198
2014-4-14,75,68,60,63,57,52,100,73,44,30.12,30.01,29.86,10,10,7,16,10,24,0.00,4,,194
2014-4-15,69,53,37,66,55,28,100,88,70,30.05,29.77,29.62,10,9,1,24,11,34,0.75,7,Rain,230
2014-4-16,51,42,32,30,24,21,75,53,30,30.48,30.34,30.05,10,10,10,15,8,22,0.00,0,,21
2014-4-17,60,45,30,39,30,23,100,62,25,30.59,30.51,30.45,10,10,10,13,5,18,0.00,0,,68
2014-4-18,59,47,35,48,38,36,100,74,44,30.49,30.39,30.27,10,10,10,10,6,,0.02,2,Rain,46
2014-4-19,55,50,44,46,45,45,100,86,67,30.26,30.22,30.19,10,10,7,13,7,21,0.17,8,Rain,47
2014-4-20,66,56,46,45,37,32,76,52,32,30.32,30.26,30.23,10,10,10,22,8,29,0.00,1,,43
2014-4-21,71,55,39,43,32,19,81,51,15,30.25,30.10,29.94,10,10,10,8,3,,0.00,0,,22
2014-4-22,80,63,46,55,47,39,93,60,28,29.94,29.78,29.69,10,10,7,16,3,25,0.00,2,Thunderstorm,260
2014-4-23,69,56,44,55,37,28,82,46,21,30.02,29.85,29.71,10,10,4,17,6,23,0.00,0,,313
2014-4-24,69,51,33,43,35,28,100,56,24,30.18,30.07,30.01,10,10,10,7,2,,0.00,0,,208
2014-4-25,77,60,44,66,53,39,100,83,54,30.02,29.87,29.69,10,9,1,15,3,22,0.95,4,Rain-Thunderstorm,198
2014-4-26,78,61,44,52,44,39,100,52,24,30.02,29.94,29.86,10,10,10,13,5,22,0.00,0,,249
2014-4-27,80,64,48,54,46,41,93,50,24,30.05,29.98,29.94,10,10,7,8,3,,0.00,0,,128
2014-4-28,64,58,51,55,49,41,100,81,62,30.05,30.01,29.95,10,10,10,16,7,16,0.00,6,Rain,64
2014-4-29,55,52,50,55,53,50,100,100,94,30.07,30.01,29.96,10,2,1,13,5,,0.01,8,Rain-Thunderstorm,47
2014-4-30,77,66,55,72,64,55,100,92,73,30.07,29.97,29.90,10,8,0,18,5,29,0.64,6,Fog-Rain-Thunderstorm,179